createdAt,value
2023-03-01T00:00:31.151Z,103267.69
2023-03-01T00:03:35.928Z,103273.78
2023-03-01T00:06:40.387Z,103277.34
2023-03-01T00:09:46.910Z,103274.56
2023-03-01T00:12:52.306Z,103275.84
2023-03-01T00:15:56.167Z,103265.66
2023-03-01T00:19:00.669Z,103263.06
2023-03-01T00:22:04.840Z,103251.75
2023-03-01T00:25:09.536Z,103254.59
2023-03-01T00:28:15.291Z,103250.16
2023-03-01T00:31:22.917Z,103248.28
2023-03-01T00:34:26.813Z,103255.63
2023-03-01T00:37:30.587Z,103252.28
2023-03-01T00:40:37.521Z,103248.09
2023-03-01T00:43:42.978Z,103252.09
2023-03-01T00:46:46.788Z,103239.13
2023-03-01T00:49:51.435Z,103242.78
2023-03-01T00:52:56.324Z,103245.97
2023-03-01T00:56:00.565Z,103243.41
2023-03-01T00:59:05.779Z,103238.00
2023-03-01T01:02:09.466Z,103243.22
2023-03-01T01:05:14.304Z,103234.50
2023-03-01T01:08:18.071Z,103239.66
2023-03-01T01:11:23.478Z,103244.69
2023-03-01T01:14:28.791Z,103240.47
2023-03-01T01:17:32.748Z,103237.09
2023-03-01T01:20:38.868Z,103234.50
2023-03-01T01:23:43.942Z,103230.28
2023-03-01T01:26:48.327Z,103226.72
2023-03-01T01:29:55.650Z,103223.28
2023-03-01T01:32:59.474Z,103222.28
2023-03-01T01:36:03.980Z,103219.94
2023-03-01T01:39:08.213Z,103221.59
2023-03-01T01:42:18.064Z,103212.84
2023-03-01T01:45:35.205Z,103213.44
2023-03-01T01:48:47.494Z,103209.19
2023-03-01T01:52:00.364Z,103203.88
2023-03-01T01:55:11.037Z,103197.84
2023-03-01T01:58:21.332Z,103194.28
2023-03-01T02:01:27.588Z,103198.66
2023-03-01T02:04:32.838Z,103185.91
2023-03-01T02:07:36.710Z,103177.94
2023-03-01T02:10:41.592Z,103182.25
2023-03-01T02:13:47.425Z,103178.88
2023-03-01T02:16:52.870Z,103180.50
2023-03-01T02:20:14.159Z,103176.75
2023-03-01T02:23:18.400Z,103170.66
2023-03-01T02:26:35.476Z,103169.16
2023-03-01T02:29:45.013Z,103172.31
2023-03-01T02:32:50.580Z,103171.34
2023-03-01T02:35:57.705Z,103174.53
2023-03-01T02:39:06.867Z,103173.84
2023-03-01T02:42:17.046Z,103166.66
2023-03-01T02:45:22.790Z,103174.63
2023-03-01T02:48:26.544Z,103174.44
2023-03-01T02:51:50.549Z,103182.06
2023-03-01T02:55:00.801Z,103177.72
2023-03-01T02:58:05.987Z,103176.09
2023-03-01T03:01:11.009Z,103181.44
2023-03-01T03:04:19.247Z,103170.88
2023-03-01T03:07:22.807Z,103166.59
2023-03-01T03:10:30.115Z,103163.94
2023-03-01T03:13:33.821Z,103167.38
2023-03-01T03:16:38.844Z,103168.19
2023-03-01T03:19:42.429Z,103164.13
2023-03-01T03:22:46.548Z,103166.41
2023-03-01T03:25:52.162Z,103158.94
2023-03-01T03:28:55.892Z,103159.34
2023-03-01T03:32:01.095Z,103149.94
2023-03-01T03:35:10.275Z,103151.81
2023-03-01T03:38:20.160Z,103144.63
2023-03-01T03:41:23.776Z,103142.75
2023-03-01T03:44:27.412Z,103141.63
2023-03-01T03:47:32.408Z,103141.63
2023-03-01T03:50:36.440Z,103146.09
2023-03-01T03:53:40.289Z,103137.03
2023-03-01T03:56:45.078Z,103133.59
2023-03-01T03:59:48.785Z,103132.91
2023-03-01T04:02:57.613Z,103123.44
2023-03-01T04:06:02.297Z,103129.75
2023-03-01T04:09:05.945Z,103130.34
2023-03-01T04:12:09.637Z,103120.88
2023-03-01T04:15:17.365Z,103126.44
2023-03-01T04:18:25.572Z,103117.88
2023-03-01T04:21:29.304Z,103115.38
2023-03-01T04:24:33.029Z,103115.22
2023-03-01T04:27:37.201Z,103117.97
2023-03-01T04:30:42.480Z,103115.47
2023-03-01T04:33:50.085Z,103121.41
2023-03-01T04:36:53.882Z,103117.09
2023-03-01T04:39:57.552Z,103109.16
2023-03-01T04:43:01.254Z,103111.81
2023-03-01T04:46:09.307Z,103105.72
2023-03-01T04:49:14.437Z,103103.06
2023-03-01T04:52:18.025Z,103100.41
2023-03-01T04:55:21.995Z,103097.25
2023-03-01T04:58:26.171Z,103102.56
2023-03-01T05:01:29.853Z,103098.22
2023-03-01T05:04:34.926Z,103102.00
2023-03-01T05:07:38.599Z,103103.59
2023-03-01T05:10:43.038Z,103100.34
2023-03-01T05:13:46.795Z,103094.31
2023-03-01T05:16:50.409Z,103096.25
2023-03-01T05:19:56.685Z,103095.91
2023-03-01T05:23:06.322Z,103102.59
2023-03-01T05:26:22.457Z,103104.19
2023-03-01T05:29:35.915Z,103101.53
2023-03-01T05:32:39.619Z,103105.06
2023-03-01T05:35:46.261Z,103110.59
2023-03-01T05:38:49.958Z,103110.50
2023-03-01T05:41:56.134Z,103105.38
2023-03-01T05:44:59.906Z,103107.59
2023-03-01T05:48:03.696Z,103104.25
2023-03-01T05:51:08.912Z,103098.03
2023-03-01T05:54:13.089Z,103108.81
2023-03-01T05:57:16.807Z,103108.31
2023-03-01T06:00:24.339Z,103109.09
2023-03-01T06:03:28.189Z,103110.25
2023-03-01T06:06:38.503Z,103107.69
2023-03-01T06:09:42.193Z,103113.16
2023-03-01T06:12:46.157Z,103114.72
2023-03-01T06:15:49.833Z,103127.53
2023-03-01T06:18:53.508Z,103121.91
2023-03-01T06:21:58.493Z,103117.69
2023-03-01T06:25:05.140Z,103123.19
2023-03-01T06:28:08.666Z,103127.63
2023-03-01T06:31:12.314Z,103120.00
2023-03-01T06:34:16.596Z,103113.56
2023-03-01T06:37:21.634Z,103115.88
2023-03-01T06:40:25.442Z,103116.25
2023-03-01T06:43:29.082Z,103117.97
2023-03-01T06:46:33.301Z,103108.50
2023-03-01T06:49:37.189Z,103108.50
2023-03-01T06:52:42.238Z,103106.38
2023-03-01T06:55:45.856Z,103103.81
2023-03-01T06:58:49.424Z,103107.00
2023-03-01T07:01:53.143Z,103102.66
2023-03-01T07:04:56.781Z,103102.84
2023-03-01T07:08:01.766Z,103112.03
2023-03-01T07:11:06.723Z,103121.25
2023-03-01T07:14:10.367Z,103114.69
2023-03-01T07:17:14.287Z,103117.59
2023-03-01T07:20:18.349Z,103113.06
2023-03-01T07:23:23.463Z,103113.31
2023-03-01T07:26:27.180Z,103114.91
2023-03-01T07:29:31.027Z,103112.88
2023-03-01T07:32:34.764Z,103104.16
2023-03-01T07:35:38.492Z,103110.13
2023-03-01T07:38:43.760Z,103116.44
2023-03-01T07:41:47.904Z,103111.84
2023-03-01T07:44:51.677Z,103100.84
2023-03-01T07:47:56.577Z,103110.13
2023-03-01T07:51:01.776Z,103109.28
2023-03-01T07:54:07.509Z,103104.06
2023-03-01T07:57:11.154Z,103094.16
2023-03-01T08:00:16.169Z,103091.19
2023-03-01T08:03:19.872Z,103093.59
2023-03-01T08:06:23.776Z,103092.81
2023-03-01T08:09:28.942Z,103090.34
2023-03-01T08:12:32.649Z,103087.78
2023-03-01T08:15:47.232Z,103081.47
2023-03-01T08:18:51.159Z,103086.22
2023-03-01T08:21:54.974Z,103096.53
2023-03-01T08:25:00.377Z,103084.44
2023-03-01T08:28:04.243Z,103084.28
2023-03-01T08:31:18.469Z,103087.88
2023-03-01T08:34:22.270Z,103091.34
2023-03-01T08:37:26.025Z,103077.97
2023-03-01T08:40:31.386Z,103072.56
2023-03-01T08:43:35.278Z,103072.00
2023-03-01T08:46:42.327Z,103057.81
2023-03-01T08:49:46.292Z,103066.22
2023-03-01T08:52:50.239Z,103060.13
2023-03-01T08:55:55.955Z,103060.63
2023-03-01T08:59:00.184Z,103058.88
2023-03-01T09:02:04.071Z,103054.19
2023-03-01T09:05:08.644Z,103051.94
2023-03-01T09:08:12.403Z,103050.78
2023-03-01T09:11:20.834Z,103050.91
2023-03-01T09:14:25.027Z,103046.94
2023-03-01T09:17:28.983Z,103053.81
2023-03-01T09:20:34.601Z,103047.31
2023-03-01T09:23:40.707Z,103043.72
2023-03-01T09:26:48.866Z,103046.56
2023-03-01T09:29:53.733Z,103050.53
2023-03-01T09:32:59.529Z,103041.16
2023-03-01T09:36:05.773Z,103044.06
2023-03-01T09:39:09.935Z,103034.94
2023-03-01T09:42:17.254Z,103037.97
2023-03-01T09:45:32.079Z,103036.97
2023-03-01T09:48:45.026Z,103033.03
2023-03-01T09:52:01.539Z,103035.84
2023-03-01T09:55:15.224Z,103032.97
2023-03-01T09:58:49.687Z,103034.88
2023-03-01T10:02:02.184Z,103036.47
2023-03-01T10:05:36.815Z,103040.28
2023-03-01T10:08:49.455Z,103031.56
2023-03-01T10:11:57.818Z,103027.91
2023-03-01T10:15:11.687Z,103024.56
2023-03-01T10:18:21.702Z,103021.47
2023-03-01T10:21:25.950Z,103016.84
2023-03-01T10:24:39.084Z,103017.66
2023-03-01T10:27:53.698Z,103026.75
2023-03-01T10:31:01.419Z,103009.25
2023-03-01T10:34:09.830Z,103010.25
2023-03-01T10:37:19.355Z,103008.59
2023-03-01T10:40:23.216Z,103008.53
2023-03-01T10:43:31.987Z,103005.88
2023-03-01T10:46:40.009Z,103000.19
2023-03-01T10:53:50.351Z,102999.50
2023-03-01T10:56:57.382Z,103003.16
2023-03-01T11:00:23.661Z,103000.00
2023-03-01T11:03:32.038Z,102997.31
2023-03-01T11:06:37.677Z,103002.66
2023-03-01T11:09:41.621Z,103000.38
2023-03-01T11:12:45.500Z,102996.41
2023-03-01T11:16:03.083Z,102993.41
2023-03-01T11:19:24.055Z,102994.75
2023-03-01T11:22:28.161Z,102985.06
2023-03-01T11:25:39.747Z,102980.84
2023-03-01T11:28:47.084Z,102976.59
2023-03-01T11:31:57.817Z,102978.41
2023-03-01T11:35:16.965Z,102986.06
2023-03-01T11:38:26.916Z,102984.63
2023-03-01T11:41:36.455Z,102976.94
2023-03-01T11:44:44.561Z,102977.06
2023-03-01T11:48:49.434Z,102978.22
2023-03-01T11:52:09.176Z,102977.94
2023-03-01T11:55:32.821Z,102978.41
2023-03-01T11:59:05.234Z,102963.06
2023-03-01T12:03:12.541Z,102959.47
2023-03-01T12:06:45.596Z,102962.00
2023-03-01T12:10:17.973Z,102957.38
2023-03-01T12:13:59.036Z,102957.53
2023-03-01T12:17:28.429Z,102948.75
2023-03-01T12:20:49.547Z,102944.38
2023-03-01T12:24:47.510Z,102935.09
2023-03-01T12:28:22.167Z,102923.78
2023-03-01T12:32:11.602Z,102928.63
2023-03-01T12:36:05.590Z,102917.75
2023-03-01T12:39:34.776Z,102913.41
2023-03-01T12:42:58.580Z,102904.75
2023-03-01T12:46:35.849Z,102909.91
2023-03-01T12:49:47.657Z,102899.53
2023-03-01T12:52:55.319Z,102891.00
2023-03-01T12:56:04.231Z,102893.38
2023-03-01T12:59:20.473Z,102894.84
2023-03-01T13:02:33.959Z,102894.97
2023-03-01T13:05:54.524Z,102888.16
2023-03-01T13:09:11.234Z,102877.47
2023-03-01T13:13:03.751Z,102882.81
2023-03-01T13:16:46.117Z,102873.84
2023-03-01T13:20:01.339Z,102872.38
2023-03-01T13:23:15.776Z,102861.25
2023-03-01T13:26:20.821Z,102857.84
2023-03-01T13:29:49.300Z,102858.38
2023-03-01T13:32:53.664Z,102866.41
2023-03-01T13:36:00.715Z,102852.53
2023-03-01T13:39:27.603Z,102858.69
2023-03-01T13:42:56.309Z,102844.56
2023-03-01T13:46:13.349Z,102842.50
2023-03-01T13:49:21.330Z,102839.34
2023-03-01T13:52:41.570Z,102839.00
2023-03-01T13:55:49.710Z,102838.78
2023-03-01T13:58:57.751Z,102832.69
2023-03-01T14:02:03.152Z,102833.69
2023-03-01T14:05:12.721Z,102833.75
2023-03-01T14:08:27.925Z,102837.19
2023-03-01T14:12:14.997Z,102823.53
2023-03-01T14:15:31.389Z,102824.31
2023-03-01T14:18:47.982Z,102809.66
2023-03-01T14:22:15.222Z,102812.91
2023-03-01T14:25:31.091Z,102807.94
2023-03-01T14:28:39.254Z,102793.25
2023-03-01T14:31:52.701Z,102786.47
2023-03-01T14:35:00.535Z,102782.31
2023-03-01T14:38:05.231Z,102774.34
2023-03-01T14:41:16.102Z,102778.44
2023-03-01T14:44:25.820Z,102772.31
2023-03-01T14:47:33.629Z,102780.88
2023-03-01T14:50:43.555Z,102770.13
2023-03-01T14:53:51.308Z,102774.31
2023-03-01T14:57:02.441Z,102775.28
2023-03-01T15:00:10.745Z,102763.22
2023-03-01T15:03:21.678Z,102758.00
2023-03-01T15:06:26.528Z,102755.31
2023-03-01T15:09:30.721Z,102740.56
2023-03-01T15:12:43.123Z,102745.78
2023-03-01T15:15:50.853Z,102738.00
2023-03-01T15:18:58.858Z,102725.72
2023-03-01T15:22:13.142Z,102725.56
2023-03-01T15:25:20.316Z,102721.28
2023-03-01T15:28:28.815Z,102725.59
2023-03-01T15:31:39.681Z,102722.94
2023-03-01T15:34:43.317Z,102723.81
2023-03-01T15:37:50.579Z,102718.53
2023-03-01T15:40:55.715Z,102722.03
2023-03-01T15:44:02.114Z,102733.22
2023-03-01T15:47:27.774Z,102727.06
2023-03-01T15:50:35.099Z,102726.94
2023-03-01T15:53:53.704Z,102731.19
2023-03-01T15:56:58.123Z,102726.81
2023-03-01T16:00:04.257Z,102729.28
2023-03-01T16:03:10.073Z,102729.38
2023-03-01T16:06:14.693Z,102727.59
2023-03-01T16:09:18.736Z,102729.41
2023-03-01T16:12:22.605Z,102717.19
2023-03-01T16:15:32.974Z,102711.75
2023-03-01T16:18:36.826Z,102715.16
2023-03-01T16:21:40.641Z,102713.34
2023-03-01T16:24:44.202Z,102718.50
2023-03-01T16:27:50.615Z,102720.06
2023-03-01T16:30:55.711Z,102731.25
2023-03-01T16:34:01.361Z,102727.59
2023-03-01T16:37:05.083Z,102727.41
2023-03-01T16:40:20.189Z,102729.03
2023-03-01T16:43:23.818Z,102727.16
2023-03-01T16:46:30.809Z,102721.72
2023-03-01T16:49:34.429Z,102725.91
2023-03-01T16:52:38.295Z,102731.00
2023-03-01T16:55:46.421Z,102723.97
2023-03-01T16:58:50.341Z,102734.19
2023-03-01T17:01:55.358Z,102726.25
2023-03-01T17:04:59.187Z,102724.31
2023-03-01T17:08:02.884Z,102730.19
2023-03-01T17:11:09.592Z,102739.69
2023-03-01T17:14:13.315Z,102742.09
2023-03-01T17:17:18.262Z,102749.69
2023-03-01T17:20:22.493Z,102746.84
2023-03-01T17:23:26.273Z,102743.22
2023-03-01T17:26:30.659Z,102743.94
2023-03-01T17:29:35.023Z,102750.59
2023-03-01T17:32:40.335Z,102753.09
2023-03-01T17:35:47.297Z,102758.00
2023-03-01T17:38:52.036Z,102763.88
2023-03-01T17:41:56.759Z,102765.47
2023-03-01T17:45:00.713Z,102768.69
2023-03-01T17:48:07.191Z,102769.25
2023-03-01T17:51:13.266Z,102776.03
2023-03-01T17:54:17.186Z,102786.22
2023-03-01T17:57:21.037Z,102790.31
2023-03-01T18:00:25.719Z,102790.03
2023-03-01T18:03:30.926Z,102798.53
2023-03-01T18:06:34.749Z,102802.56
2023-03-01T18:09:38.422Z,102809.13
2023-03-01T18:12:42.101Z,102809.78
2023-03-01T18:15:45.775Z,102819.91
2023-03-01T18:18:56.391Z,102821.38
2023-03-01T18:22:00.227Z,102814.88
2023-03-01T18:25:04.994Z,102817.16
2023-03-01T18:28:08.787Z,102815.78
2023-03-01T18:31:12.798Z,102815.38
2023-03-01T18:34:17.939Z,102812.03
2023-03-01T18:37:21.693Z,102808.31
2023-03-01T18:40:25.499Z,102819.19
2023-03-01T18:43:30.110Z,102819.00
2023-03-01T18:46:37.913Z,102825.75
2023-03-01T18:49:43.913Z,102814.50
2023-03-01T18:52:47.567Z,102817.84
2023-03-01T18:55:51.437Z,102827.97
2023-03-01T18:58:56.203Z,102826.91
2023-03-01T19:02:00.680Z,102827.75
2023-03-01T19:05:06.806Z,102827.66
2023-03-01T19:08:10.653Z,102829.09
2023-03-01T19:11:17.937Z,102834.25
2023-03-01T19:14:21.651Z,102834.31
2023-03-01T19:17:30.571Z,102835.91
2023-03-01T19:20:35.638Z,102836.75
2023-03-01T19:23:40.086Z,102845.13
2023-03-01T19:26:44.049Z,102855.56
2023-03-01T19:29:47.814Z,102844.41
2023-03-01T19:32:52.257Z,102838.38
2023-03-01T19:35:57.890Z,102845.28
2023-03-01T19:39:04.000Z,102846.75
2023-03-01T19:42:07.871Z,102850.03
2023-03-01T19:45:12.886Z,102850.59
2023-03-01T19:48:17.420Z,102851.50
2023-03-01T19:51:22.875Z,102848.16
2023-03-01T19:54:26.813Z,102843.94
2023-03-01T19:57:30.579Z,102836.97
2023-03-01T20:00:34.776Z,102839.44
2023-03-01T20:03:38.620Z,102839.34
2023-03-01T20:06:47.212Z,102841.13
2023-03-01T20:09:50.871Z,102851.25
2023-03-01T20:12:54.495Z,102840.91
2023-03-01T20:15:58.298Z,102846.91
2023-03-01T20:19:02.390Z,102847.91
2023-03-01T20:22:07.538Z,102851.31
2023-03-01T20:25:12.722Z,102843.72
2023-03-01T20:28:16.579Z,102849.72
2023-03-01T20:31:24.002Z,102852.41
2023-03-01T20:34:27.832Z,102850.53
2023-03-01T20:37:33.288Z,102852.31
2023-03-01T20:40:38.308Z,102854.09
2023-03-01T20:43:44.090Z,102851.41
2023-03-01T20:46:47.929Z,102854.91
2023-03-01T20:49:53.339Z,102847.97
2023-03-01T20:52:58.442Z,102851.97
2023-03-01T20:56:04.404Z,102846.38
2023-03-01T20:59:10.057Z,102848.09
2023-03-01T21:02:13.705Z,102848.69
2023-03-01T21:05:17.668Z,102841.16
2023-03-01T21:08:22.663Z,102845.16
2023-03-01T21:11:26.371Z,102841.31
2023-03-01T21:14:30.038Z,102832.50
2023-03-01T21:17:34.916Z,102834.88
2023-03-01T21:20:42.889Z,102836.47
2023-03-01T21:23:48.976Z,102834.47
2023-03-01T21:26:52.637Z,102835.22
2023-03-01T21:29:56.291Z,102841.91
2023-03-01T21:32:59.894Z,102832.47
2023-03-01T21:36:07.201Z,102830.59
2023-03-01T21:39:12.936Z,102830.34
2023-03-01T21:42:16.631Z,102826.72
2023-03-01T21:45:25.413Z,102826.16
2023-03-01T21:48:29.329Z,102823.41
2023-03-01T21:51:34.240Z,102825.13
2023-03-01T21:54:39.364Z,102837.03
2023-03-01T21:57:44.585Z,102823.00
2023-03-01T22:00:49.085Z,102821.97
2023-03-01T22:03:52.823Z,102818.25
2023-03-01T22:06:56.470Z,102814.69
2023-03-01T22:10:01.624Z,102821.22
2023-03-01T22:13:05.226Z,102811.78
2023-03-01T22:16:09.252Z,102810.59
2023-03-01T22:19:15.050Z,102809.88
2023-03-01T22:22:18.664Z,102819.03
2023-03-01T22:25:23.744Z,102830.09
2023-03-01T22:28:27.579Z,102832.66
2023-03-01T22:31:32.084Z,102836.13
2023-03-01T22:34:35.971Z,102833.97
2023-03-01T22:37:40.600Z,102836.88
2023-03-01T22:40:45.587Z,102836.75
2023-03-01T22:43:49.212Z,102826.91
2023-03-01T22:46:53.698Z,102834.41
2023-03-01T22:49:57.930Z,102837.97
2023-03-01T22:53:01.547Z,102835.44
2023-03-01T22:56:15.492Z,102822.84
2023-03-01T22:59:24.010Z,102824.22
2023-03-01T23:02:28.501Z,102829.50
2023-03-01T23:05:32.169Z,102825.75
2023-03-01T23:08:36.091Z,102833.44
2023-03-01T23:11:41.104Z,102829.06
2023-03-01T23:14:44.754Z,102844.53
2023-03-01T23:17:48.387Z,102840.75
2023-03-01T23:20:52.141Z,102837.97
2023-03-01T23:23:56.904Z,102834.78
2023-03-01T23:27:04.610Z,102828.94
2023-03-01T23:30:10.303Z,102846.75
2023-03-01T23:33:13.920Z,102841.28
2023-03-01T23:36:21.248Z,102833.50
2023-03-01T23:39:24.991Z,102832.75
2023-03-01T23:42:29.944Z,102836.13
2023-03-01T23:45:33.558Z,102829.91
2023-03-01T23:48:37.241Z,102823.81
2023-03-01T23:51:44.635Z,102827.06
2023-03-01T23:54:48.209Z,102825.56
2023-03-01T23:57:53.323Z,102817.16
